createdAt,value
2022-12-14T00:00:55.093Z,84.10
2022-12-14T00:03:27.306Z,80.50
2022-12-14T00:05:59.481Z,84.10
2022-12-14T00:08:34.328Z,84.40
2022-12-14T00:11:09.265Z,80.00
2022-12-14T00:13:41.859Z,88.10
2022-12-14T00:16:17.248Z,82.30
2022-12-14T00:18:53.527Z,79.50
2022-12-14T00:21:26.739Z,80.90
2022-12-14T00:24:00.944Z,82.70
2022-12-14T00:26:34.041Z,84.20
2022-12-14T00:29:06.203Z,77.80
2022-12-14T00:31:38.248Z,85.10
2022-12-14T00:34:10.540Z,85.40
2022-12-14T00:36:42.708Z,83.20
2022-12-14T00:39:15.168Z,83.80
2022-12-14T00:41:48.481Z,82.80
2022-12-14T00:44:20.549Z,78.20
2022-12-14T00:46:52.524Z,84.80
2022-12-14T00:49:24.576Z,80.00
2022-12-14T00:51:56.642Z,84.60
2022-12-14T00:54:28.608Z,78.20
2022-12-14T00:57:00.774Z,78.80
2022-12-14T00:59:32.841Z,81.80
2022-12-14T01:02:05.518Z,86.50
2022-12-14T01:04:37.998Z,79.60
2022-12-14T01:07:10.001Z,82.40
2022-12-14T01:09:41.971Z,83.10
2022-12-14T01:12:13.999Z,87.30
2022-12-14T01:14:46.956Z,79.50
2022-12-14T01:17:19.044Z,83.00
2022-12-14T01:19:51.699Z,79.30
2022-12-14T01:22:23.791Z,83.40
2022-12-14T01:24:55.860Z,81.10
2022-12-14T01:27:28.206Z,82.20
2022-12-14T01:30:00.298Z,83.90
2022-12-14T01:32:33.490Z,80.60
2022-12-14T01:35:06.171Z,74.80
2022-12-14T01:37:38.340Z,81.90
2022-12-14T01:40:12.487Z,76.10
2022-12-14T01:42:44.464Z,76.10
2022-12-14T01:45:23.276Z,73.60
2022-12-14T01:47:58.079Z,76.20
2022-12-14T01:50:35.875Z,79.00
2022-12-14T01:53:11.939Z,74.20
2022-12-14T01:55:48.844Z,70.70
2022-12-14T01:58:23.876Z,70.70
2022-12-14T02:00:59.238Z,75.50
2022-12-14T02:03:34.686Z,76.90
2022-12-14T02:08:43.515Z,71.70
2022-12-14T02:11:16.270Z,75.10
2022-12-14T02:13:48.900Z,73.80
2022-12-14T02:16:21.286Z,75.00
2022-12-14T02:18:53.490Z,75.40
2022-12-14T02:21:37.021Z,81.60
2022-12-14T02:24:35.719Z,71.80
2022-12-14T02:27:33.001Z,71.20
2022-12-14T02:30:13.329Z,72.00
2022-12-14T02:33:14.720Z,71.10
2022-12-14T02:35:52.248Z,67.70
2022-12-14T02:38:38.887Z,68.90
2022-12-14T02:41:18.257Z,68.10
2022-12-14T02:43:59.505Z,70.00
2022-12-14T02:46:37.941Z,70.00
2022-12-14T02:49:16.338Z,67.50
2022-12-14T02:51:57.033Z,72.90
2022-12-14T02:54:36.034Z,70.60
2022-12-14T02:57:13.656Z,73.40
2022-12-14T02:59:47.029Z,63.30
2022-12-14T03:02:19.827Z,69.20
2022-12-14T03:04:52.593Z,71.40
2022-12-14T03:07:48.806Z,67.00
2022-12-14T03:10:29.477Z,68.20
2022-12-14T03:13:13.095Z,66.90
2022-12-14T03:15:48.456Z,66.90
2022-12-14T03:18:23.818Z,66.30
2022-12-14T03:20:59.497Z,66.70
2022-12-14T03:26:10.711Z,63.30
2022-12-14T03:28:48.581Z,65.30
2022-12-14T03:31:32.315Z,66.00
2022-12-14T03:34:13.304Z,63.00
2022-12-14T03:36:49.755Z,65.50
2022-12-14T03:39:26.968Z,63.90
2022-12-14T03:42:06.380Z,61.00
2022-12-14T03:44:49.465Z,61.80
2022-12-14T03:47:37.375Z,64.40
2022-12-14T03:50:14.731Z,61.50
2022-12-14T03:52:54.924Z,66.50
2022-12-14T03:55:33.407Z,62.00
2022-12-14T03:58:29.962Z,63.80
2022-12-14T04:01:09.877Z,58.70
2022-12-14T04:03:55.621Z,63.90
2022-12-14T04:06:35.226Z,62.10
2022-12-14T04:09:19.070Z,62.70
2022-12-14T04:12:14.999Z,62.40
2022-12-14T04:15:10.614Z,57.00
2022-12-14T04:18:02.238Z,62.20
2022-12-14T04:20:40.529Z,59.70
2022-12-14T04:23:37.910Z,60.50
2022-12-14T04:26:14.277Z,56.90
2022-12-14T04:29:10.305Z,57.30
2022-12-14T04:31:46.812Z,59.90
2022-12-14T04:34:24.693Z,58.60
2022-12-14T04:37:00.842Z,61.70
2022-12-14T04:39:37.345Z,56.40
2022-12-14T04:42:12.669Z,55.00
2022-12-14T04:44:50.354Z,58.10
2022-12-14T04:47:24.598Z,56.60
2022-12-14T04:50:01.708Z,58.10
2022-12-14T04:52:38.838Z,54.00
2022-12-14T04:55:18.994Z,59.50
2022-12-14T04:57:55.820Z,59.00
2022-12-14T05:00:28.742Z,55.00
2022-12-14T05:03:18.335Z,55.20
2022-12-14T05:06:06.834Z,62.00
2022-12-14T05:08:55.958Z,54.80
2022-12-14T05:14:33.570Z,56.60
2022-12-14T05:17:09.221Z,57.80
2022-12-14T05:19:48.944Z,57.40
2022-12-14T05:22:21.341Z,55.30
2022-12-14T05:24:53.255Z,55.50
2022-12-14T05:27:25.271Z,54.80
2022-12-14T05:29:57.335Z,55.60
2022-12-14T05:32:30.889Z,57.80
2022-12-14T05:35:03.924Z,54.90
2022-12-14T05:37:36.094Z,57.20
2022-12-14T05:40:10.707Z,56.20
2022-12-14T05:42:45.350Z,54.00
2022-12-14T05:45:19.057Z,56.30
2022-12-14T05:47:51.126Z,56.50
2022-12-14T05:50:23.184Z,57.50
2022-12-14T05:52:55.919Z,54.70
2022-12-14T05:55:28.032Z,54.60
2022-12-14T05:57:59.997Z,56.90
2022-12-14T06:00:32.065Z,55.80
2022-12-14T06:03:04.166Z,54.70
2022-12-14T06:05:36.335Z,51.00
2022-12-14T06:08:08.803Z,56.50
2022-12-14T06:10:40.843Z,50.50
2022-12-14T06:13:12.928Z,52.20
2022-12-14T06:15:44.940Z,54.90
2022-12-14T06:18:17.001Z,53.60
2022-12-14T06:20:49.003Z,49.70
2022-12-14T06:23:20.966Z,52.70
2022-12-14T06:25:57.806Z,51.00
2022-12-14T06:28:29.919Z,54.00
2022-12-14T06:31:02.036Z,50.40
2022-12-14T06:33:35.818Z,55.40
2022-12-14T06:36:09.085Z,52.80
2022-12-14T06:38:41.325Z,53.00
2022-12-14T06:41:13.828Z,48.60
2022-12-14T06:43:46.043Z,52.30
2022-12-14T06:48:55.487Z,45.60
2022-12-14T06:51:27.828Z,46.70
2022-12-14T06:54:00.102Z,52.60
2022-12-14T06:56:32.137Z,54.70
2022-12-14T06:59:05.497Z,54.10
2022-12-14T07:01:38.922Z,51.60
2022-12-14T07:04:11.639Z,52.30
2022-12-14T07:06:44.014Z,51.20
2022-12-14T07:09:16.701Z,56.20
2022-12-14T07:11:51.092Z,52.00
2022-12-14T07:14:23.182Z,53.60
2022-12-14T07:16:55.180Z,50.80
2022-12-14T07:19:27.211Z,54.20
2022-12-14T07:22:04.194Z,50.40
2022-12-14T07:24:36.466Z,55.20
2022-12-14T07:27:10.730Z,53.90
2022-12-14T07:29:42.952Z,53.90
2022-12-14T07:32:15.121Z,54.80
2022-12-14T07:34:53.519Z,55.10
2022-12-14T07:37:27.655Z,57.00
2022-12-14T07:40:00.758Z,51.20
2022-12-14T07:42:32.911Z,71.00
2022-12-14T07:45:09.140Z,58.60
2022-12-14T07:47:41.557Z,65.30
2022-12-14T07:50:14.024Z,63.90
2022-12-14T07:52:46.192Z,61.80
2022-12-14T07:55:18.968Z,63.10
2022-12-14T07:57:51.043Z,64.40
2022-12-14T08:00:24.880Z,63.10
2022-12-14T08:02:59.271Z,62.60
2022-12-14T08:05:31.645Z,58.10
2022-12-14T08:08:04.746Z,59.20
2022-12-14T08:10:40.332Z,60.40
2022-12-14T08:13:15.113Z,59.00
2022-12-14T08:15:48.267Z,63.30
2022-12-14T08:18:20.535Z,58.40
2022-12-14T08:20:53.770Z,58.10
2022-12-14T08:23:25.761Z,63.10
2022-12-14T08:25:58.707Z,62.20
2022-12-14T08:28:32.222Z,54.50
2022-12-14T08:31:09.609Z,62.60
2022-12-14T08:33:42.907Z,57.00
2022-12-14T08:36:17.262Z,55.70
2022-12-14T08:38:52.981Z,56.30
2022-12-14T08:41:26.275Z,61.40
2022-12-14T08:44:00.185Z,55.80
2022-12-14T08:46:34.927Z,55.20
2022-12-14T08:49:07.724Z,53.00
2022-12-14T08:51:39.866Z,60.90
2022-12-14T08:54:12.915Z,61.40
2022-12-14T08:56:47.785Z,72.00
2022-12-14T08:59:52.124Z,85.70
2022-12-14T09:02:15.022Z,75.50
2022-12-14T09:04:49.516Z,85.10
2022-12-14T09:07:21.651Z,77.90
2022-12-14T09:09:53.747Z,78.40
2022-12-14T09:12:26.605Z,77.10
2022-12-14T09:14:58.647Z,76.40
2022-12-14T09:17:30.745Z,71.30
2022-12-14T09:20:02.709Z,71.30
2022-12-14T09:22:34.869Z,71.70
2022-12-14T09:25:09.002Z,72.40
2022-12-14T09:27:41.154Z,73.10
2022-12-14T09:30:14.070Z,72.80
2022-12-14T09:32:50.688Z,73.10
2022-12-14T09:35:23.597Z,69.60
2022-12-14T09:37:55.765Z,67.70
2022-12-14T09:40:32.126Z,70.40
2022-12-14T09:43:11.776Z,68.90
2022-12-14T09:45:50.550Z,68.20
2022-12-14T09:48:26.518Z,68.00
2022-12-14T09:50:59.091Z,65.50
2022-12-14T09:53:32.016Z,68.00
2022-12-14T09:56:16.129Z,65.80
2022-12-14T09:58:54.955Z,66.40
2022-12-14T10:02:13.825Z,60.60
2022-12-14T10:04:56.640Z,63.40
2022-12-14T10:07:36.097Z,56.20
2022-12-14T10:10:21.253Z,64.60
2022-12-14T10:13:01.048Z,60.60
2022-12-14T10:15:40.987Z,60.10
2022-12-14T10:18:59.075Z,56.80
2022-12-14T10:21:44.280Z,55.50
2022-12-14T10:24:22.318Z,62.70
2022-12-14T10:26:56.588Z,58.30
2022-12-14T10:29:38.524Z,60.90
2022-12-14T10:32:23.238Z,58.30
2022-12-14T10:34:55.590Z,57.90
2022-12-14T10:37:33.745Z,61.30
2022-12-14T10:40:29.253Z,56.20
2022-12-14T10:43:24.956Z,58.40
2022-12-14T10:46:10.124Z,57.30
2022-12-14T10:48:55.568Z,61.50
2022-12-14T10:51:35.110Z,55.50
2022-12-14T10:54:19.875Z,57.10
2022-12-14T10:56:52.533Z,58.70
2022-12-14T10:59:42.383Z,53.20
2022-12-14T11:02:22.459Z,50.90
2022-12-14T11:04:57.479Z,58.60
2022-12-14T11:07:43.225Z,59.70
2022-12-14T11:10:20.419Z,54.30
2022-12-14T11:13:05.161Z,54.80
2022-12-14T11:15:41.460Z,55.10
2022-12-14T11:18:28.782Z,64.50
2022-12-14T11:21:04.798Z,61.90
2022-12-14T11:23:43.843Z,62.30
2022-12-14T11:26:26.063Z,60.20
2022-12-14T11:29:00.640Z,61.00
2022-12-14T11:31:38.072Z,58.80
2022-12-14T11:34:24.577Z,61.40
2022-12-14T11:36:56.738Z,65.50
2022-12-14T11:39:29.441Z,62.80
2022-12-14T11:42:05.447Z,61.40
2022-12-14T11:44:38.832Z,62.90
2022-12-14T11:47:15.929Z,60.90
2022-12-14T11:49:50.074Z,58.80
2022-12-14T11:52:25.277Z,59.00
2022-12-14T11:57:54.538Z,55.20
2022-12-14T12:00:30.758Z,57.00
2022-12-14T12:03:08.471Z,57.30
2022-12-14T12:05:45.482Z,60.00
2022-12-14T12:08:30.608Z,60.20
2022-12-14T12:11:05.093Z,53.00
2022-12-14T12:13:41.650Z,53.80
2022-12-14T12:16:20.020Z,50.80
2022-12-14T12:18:55.856Z,52.90
2022-12-14T12:21:31.315Z,51.30
2022-12-14T12:24:08.665Z,52.70
2022-12-14T12:26:50.148Z,51.00
2022-12-14T12:29:29.300Z,50.80
2022-12-14T12:32:08.507Z,50.70
2022-12-14T12:34:51.946Z,52.90
2022-12-14T12:37:32.500Z,52.10
2022-12-14T12:40:13.619Z,52.70
2022-12-14T12:42:53.126Z,53.90
2022-12-14T12:45:32.374Z,55.60
2022-12-14T12:48:09.016Z,51.80
2022-12-14T12:50:50.013Z,52.70
2022-12-14T12:53:28.379Z,53.50
2022-12-14T12:56:09.253Z,52.00
2022-12-14T12:58:46.419Z,54.00
2022-12-14T13:01:31.345Z,52.00
2022-12-14T13:04:10.473Z,54.40
2022-12-14T13:06:50.130Z,52.40
2022-12-14T13:09:36.431Z,55.60
2022-12-14T13:12:16.786Z,53.20
2022-12-14T13:14:50.955Z,52.50
2022-12-14T13:17:32.490Z,56.40
2022-12-14T13:20:08.247Z,51.00
2022-12-14T13:22:43.690Z,52.50
2022-12-14T13:25:24.927Z,50.40
2022-12-14T13:28:18.826Z,53.30
2022-12-14T13:31:00.231Z,50.80
2022-12-14T13:33:56.849Z,51.60
2022-12-14T13:37:01.004Z,50.20
2022-12-14T13:40:04.194Z,48.40
2022-12-14T13:42:51.992Z,50.50
2022-12-14T13:45:31.256Z,50.20
2022-12-14T13:48:08.340Z,49.40
2022-12-14T13:50:53.005Z,51.50
2022-12-14T13:53:37.424Z,46.30
2022-12-14T13:56:32.903Z,51.00
2022-12-14T13:59:21.771Z,48.30
2022-12-14T14:02:00.046Z,47.00
2022-12-14T14:04:33.564Z,45.30
2022-12-14T14:07:50.721Z,45.60
2022-12-14T14:10:33.644Z,43.40
2022-12-14T14:13:50.065Z,43.90
2022-12-14T14:16:35.456Z,42.20
2022-12-14T14:19:21.633Z,42.10
2022-12-14T14:22:23.407Z,43.30
2022-12-14T14:25:12.220Z,41.70
2022-12-14T14:27:50.934Z,42.30
2022-12-14T14:30:30.202Z,40.20
2022-12-14T14:33:36.311Z,39.40
2022-12-14T14:36:16.072Z,39.90
2022-12-14T14:38:51.111Z,39.80
2022-12-14T14:41:29.425Z,37.80
2022-12-14T14:44:04.500Z,39.40
2022-12-14T14:46:40.695Z,38.60
2022-12-14T14:49:24.565Z,38.70
2022-12-14T14:51:59.664Z,35.30
2022-12-14T14:57:56.673Z,35.90
2022-12-14T15:00:29.615Z,38.30
2022-12-14T15:03:02.501Z,39.70
2022-12-14T15:05:42.444Z,40.90
2022-12-14T15:08:22.250Z,38.40
2022-12-14T15:10:56.532Z,43.90
2022-12-14T15:13:34.793Z,41.70
2022-12-14T15:16:21.299Z,38.90
2022-12-14T15:18:53.451Z,38.50
2022-12-14T15:21:26.740Z,38.60
2022-12-14T15:24:00.753Z,39.10
2022-12-14T15:26:35.995Z,41.60
2022-12-14T15:29:16.087Z,37.30
2022-12-14T15:31:54.758Z,38.50
2022-12-14T15:34:31.546Z,37.70
2022-12-14T15:37:04.124Z,33.30
2022-12-14T15:39:43.768Z,36.70
2022-12-14T15:42:18.554Z,39.90
2022-12-14T15:44:55.949Z,36.50
2022-12-14T15:47:30.770Z,37.00
2022-12-14T15:50:17.779Z,38.70
2022-12-14T15:52:51.861Z,38.70
2022-12-14T15:55:34.210Z,36.00
2022-12-14T15:58:18.366Z,34.70
2022-12-14T16:00:53.489Z,35.00
2022-12-14T16:03:33.396Z,35.50
2022-12-14T16:06:07.717Z,34.20
2022-12-14T16:08:45.626Z,34.00
2022-12-14T16:11:25.465Z,37.20
2022-12-14T16:14:01.025Z,34.70
2022-12-14T16:19:25.962Z,32.50
2022-12-14T16:22:21.324Z,35.90
2022-12-14T16:25:16.896Z,33.50
2022-12-14T16:27:50.869Z,33.90
2022-12-14T16:30:27.813Z,33.00
2022-12-14T16:33:18.976Z,31.60
2022-12-14T16:36:02.749Z,32.80
2022-12-14T16:38:39.286Z,32.50
2022-12-14T16:41:12.433Z,31.80
2022-12-14T16:43:55.807Z,33.10
2022-12-14T16:46:28.336Z,30.80
2022-12-14T16:52:07.745Z,30.40
2022-12-14T16:57:22.682Z,32.50
2022-12-14T17:00:01.769Z,33.30
2022-12-14T17:02:36.660Z,27.90
2022-12-14T17:05:17.229Z,31.30
2022-12-14T17:07:50.763Z,31.30
2022-12-14T17:10:25.610Z,29.40
2022-12-14T17:13:00.398Z,27.80
2022-12-14T17:15:35.766Z,29.90
2022-12-14T17:18:11.119Z,30.30
2022-12-14T17:20:46.247Z,30.10
2022-12-14T17:23:20.071Z,29.50
2022-12-14T17:25:52.225Z,28.50
2022-12-14T17:28:28.148Z,28.10
2022-12-14T17:31:02.041Z,29.40
2022-12-14T17:33:34.393Z,29.20
2022-12-14T17:36:07.861Z,29.30
2022-12-14T17:38:40.033Z,26.90
2022-12-14T17:41:18.962Z,27.10
2022-12-14T17:43:56.673Z,28.50
2022-12-14T17:46:29.656Z,29.00
2022-12-14T17:49:06.399Z,27.70
2022-12-14T17:51:42.209Z,25.40
2022-12-14T17:54:18.862Z,26.00
2022-12-14T17:56:51.018Z,26.80
2022-12-14T17:59:23.086Z,25.40
2022-12-14T18:01:55.477Z,26.70
2022-12-14T18:04:27.832Z,25.70
2022-12-14T18:06:59.904Z,27.10
2022-12-14T18:09:32.169Z,26.10
2022-12-14T18:14:56.679Z,25.60
2022-12-14T18:17:28.744Z,24.70
2022-12-14T18:20:03.678Z,24.60
2022-12-14T18:22:35.753Z,23.30
2022-12-14T18:25:24.950Z,26.30
2022-12-14T18:27:57.489Z,23.40
2022-12-14T18:30:36.784Z,23.80
2022-12-14T18:33:15.683Z,24.70
2022-12-14T18:35:52.224Z,24.50
2022-12-14T18:38:24.505Z,23.50
2022-12-14T18:40:58.870Z,25.40
2022-12-14T18:43:37.679Z,25.60
2022-12-14T18:46:13.154Z,22.80
2022-12-14T18:51:36.161Z,24.20
2022-12-14T18:54:08.738Z,22.10
2022-12-14T18:56:43.366Z,23.50
2022-12-14T18:59:15.943Z,23.40
2022-12-14T19:01:48.244Z,24.60
2022-12-14T19:04:22.541Z,23.50
2022-12-14T19:06:54.709Z,25.30
2022-12-14T19:09:26.908Z,22.50
2022-12-14T19:11:59.141Z,22.90
2022-12-14T19:14:31.106Z,26.00
2022-12-14T19:17:03.273Z,23.40
2022-12-14T19:19:41.054Z,22.10
2022-12-14T19:22:16.520Z,25.20
2022-12-14T19:24:52.301Z,24.80
2022-12-14T19:27:58.918Z,22.60
2022-12-14T19:30:23.032Z,23.10
2022-12-14T19:32:56.661Z,23.20
2022-12-14T19:35:29.241Z,23.60
2022-12-14T19:38:01.900Z,25.50
2022-12-14T19:40:34.366Z,23.00
2022-12-14T19:43:06.434Z,23.30
2022-12-14T19:45:39.690Z,23.50
2022-12-14T19:48:13.507Z,24.70
2022-12-14T19:50:49.061Z,24.60
2022-12-14T19:53:24.050Z,22.50
2022-12-14T19:55:56.604Z,24.60
2022-12-14T19:58:29.075Z,25.10
2022-12-14T20:01:01.447Z,20.20
2022-12-14T20:03:33.884Z,22.50
2022-12-14T20:06:08.138Z,22.50
2022-12-14T20:08:40.204Z,25.00
2022-12-14T20:11:13.395Z,24.50
2022-12-14T20:13:45.876Z,22.30
2022-12-14T20:16:19.651Z,24.50
2022-12-14T20:18:52.466Z,27.70
2022-12-14T20:21:29.283Z,23.60
2022-12-14T20:24:02.169Z,25.60
2022-12-14T20:26:34.191Z,23.40
2022-12-14T20:29:07.931Z,24.50
2022-12-14T20:31:40.025Z,24.10
2022-12-14T20:34:12.540Z,25.10
2022-12-14T20:36:44.710Z,23.20
2022-12-14T20:39:16.776Z,25.60
2022-12-14T20:41:48.840Z,23.50
2022-12-14T20:44:20.806Z,25.10
2022-12-14T20:46:52.892Z,26.40
2022-12-14T20:49:30.267Z,24.60
2022-12-14T20:52:02.323Z,25.00
2022-12-14T20:54:34.601Z,26.30
2022-12-14T20:57:06.778Z,25.10
2022-12-14T20:59:38.937Z,25.60
2022-12-14T21:02:16.639Z,26.70
2022-12-14T21:04:49.315Z,27.60
2022-12-14T21:07:25.822Z,27.60
2022-12-14T21:09:58.364Z,27.30
2022-12-14T21:12:30.842Z,26.40
2022-12-14T21:15:02.839Z,26.80
2022-12-14T21:17:35.035Z,27.20
2022-12-14T21:20:08.234Z,28.40
2022-12-14T21:22:40.436Z,28.10
2022-12-14T21:25:12.912Z,27.10
2022-12-14T21:27:45.388Z,29.10
2022-12-14T21:30:18.621Z,27.60
2022-12-14T21:32:50.545Z,32.30
2022-12-14T21:35:22.712Z,28.30
2022-12-14T21:37:54.589Z,28.20
2022-12-14T21:40:44.458Z,31.40
2022-12-14T21:43:16.524Z,27.70
2022-12-14T21:45:52.073Z,29.40
2022-12-14T21:50:54.775Z,27.00
2022-12-14T21:53:31.627Z,32.40
2022-12-14T21:56:22.558Z,27.20
2022-12-14T21:58:54.625Z,33.10
2022-12-14T22:01:26.787Z,31.20
2022-12-14T22:03:58.963Z,34.10
2022-12-14T22:06:31.064Z,32.50
2022-12-14T22:09:05.043Z,33.10
2022-12-14T22:11:37.209Z,32.00
2022-12-14T22:14:10.245Z,32.60
2022-12-14T22:16:42.711Z,32.90
2022-12-14T22:19:18.019Z,32.00
2022-12-14T22:21:50.864Z,34.60
2022-12-14T22:24:24.607Z,32.40
2022-12-14T22:26:59.368Z,34.30
2022-12-14T22:29:31.503Z,33.40
2022-12-14T22:32:03.661Z,26.90
2022-12-14T22:34:36.149Z,33.40
2022-12-14T22:37:08.728Z,34.10
2022-12-14T22:39:40.793Z,34.60
2022-12-14T22:42:12.961Z,34.30
2022-12-14T22:44:45.272Z,35.20
2022-12-14T22:47:17.710Z,31.60
2022-12-14T22:49:49.776Z,31.50
2022-12-14T22:52:24.924Z,33.80
2022-12-14T22:54:57.630Z,31.80
2022-12-14T22:57:30.995Z,34.60
2022-12-14T23:00:08.211Z,35.50
2022-12-14T23:02:45.314Z,33.70
2022-12-14T23:05:20.679Z,36.20
2022-12-14T23:07:53.696Z,35.40
2022-12-14T23:10:43.682Z,37.10
2022-12-14T23:13:33.894Z,33.40
2022-12-14T23:16:25.054Z,35.00
2022-12-14T23:19:15.177Z,31.80
2022-12-14T23:22:04.959Z,34.50
2022-12-14T23:24:54.843Z,35.90
2022-12-14T23:27:44.419Z,34.00
2022-12-14T23:30:34.435Z,36.00
2022-12-14T23:33:24.395Z,36.30
2022-12-14T23:36:14.379Z,38.40
2022-12-14T23:39:04.263Z,33.50
2022-12-14T23:41:54.354Z,35.20
2022-12-14T23:44:44.749Z,32.70
2022-12-14T23:47:34.738Z,33.50
2022-12-14T23:50:25.235Z,36.80
2022-12-14T23:53:14.652Z,33.40
2022-12-14T23:56:04.594Z,36.20
2022-12-14T23:58:54.476Z,33.90
